Terminal Aerodrome Forecast
Issued by NWS

Current Version | Previous Version | Text Only | Print | Product List | Glossary Off
Versions: 1 2 3 4 5 6 7 8 9 10 11 12 13 14 15 16 17 18 19 20 21 22 23

000
FTUS41 KPBZ 140500
TAFMGW
TAF
KMGW 140528Z 1406/1506 00000KT 5SM BR SKC
      TEMPO 1406/1408 2SM BR
     FM140800 00000KT 2SM BR SKC
     FM141200 VRB03KT P6SM SCT050=

USA.gov is the U.S. government's official web portal to all federal, state and local government web resources and services.